sensor_id;sensor_type;location;lat;lon;timestamp;P1;durP1;ratioP1;P2;durP2;ratioP2
4232;SDS011;2130;48.472;11.934;2023-08-17T00:00:05;4.47;;;2.33;;
4232;SDS011;2130;48.472;11.934;2023-08-17T00:02:38;4.50;;;2.70;;
4232;SDS011;2130;48.472;11.934;2023-08-17T00:05:09;8.57;;;2.80;;
4232;SDS011;2130;48.472;11.934;2023-08-17T00:07:37;5.80;;;2.67;;
4232;SDS011;2130;48.472;11.934;2023-08-17T00:10:07;3.93;;;2.33;;
4232;SDS011;2130;48.472;11.934;2023-08-17T00:12:36;5.33;;;2.63;;
4232;SDS011;2130;48.472;11.934;2023-08-17T00:15:05;3.53;;;2.40;;
4232;SDS011;2130;48.472;11.934;2023-08-17T00:17:35;5.20;;;2.40;;
4232;SDS011;2130;48.472;11.934;2023-08-17T00:20:04;4.77;;;2.50;;
4232;SDS011;2130;48.472;11.934;2023-08-17T00:22:38;4.10;;;2.43;;
4232;SDS011;2130;48.472;11.934;2023-08-17T00:25:08;6.43;;;2.60;;
4232;SDS011;2130;48.472;11.934;2023-08-17T00:27:37;4.50;;;2.37;;
4232;SDS011;2130;48.472;11.934;2023-08-17T00:30:07;4.13;;;2.37;;
4232;SDS011;2130;48.472;11.934;2023-08-17T00:32:36;4.23;;;2.60;;
4232;SDS011;2130;48.472;11.934;2023-08-17T00:35:06;4.10;;;2.43;;
4232;SDS011;2130;48.472;11.934;2023-08-17T00:37:37;5.10;;;2.80;;
4232;SDS011;2130;48.472;11.934;2023-08-17T00:40:06;5.10;;;2.10;;
4232;SDS011;2130;48.472;11.934;2023-08-17T00:42:36;8.10;;;2.70;;
4232;SDS011;2130;48.472;11.934;2023-08-17T00:45:05;4.13;;;2.57;;
4232;SDS011;2130;48.472;11.934;2023-08-17T00:47:35;3.73;;;2.30;;
4232;SDS011;2130;48.472;11.934;2023-08-17T00:50:05;3.77;;;2.30;;
4232;SDS011;2130;48.472;11.934;2023-08-17T00:52:35;5.07;;;2.60;;
4232;SDS011;2130;48.472;11.934;2023-08-17T00:55:06;4.47;;;2.80;;
4232;SDS011;2130;48.472;11.934;2023-08-17T00:57:35;5.10;;;3.00;;
4232;SDS011;2130;48.472;11.934;2023-08-17T01:00:06;4.27;;;2.60;;
4232;SDS011;2130;48.472;11.934;2023-08-17T01:02:36;4.00;;;2.27;;
4232;SDS011;2130;48.472;11.934;2023-08-17T01:05:06;4.40;;;2.37;;
4232;SDS011;2130;48.472;11.934;2023-08-17T01:07:35;3.20;;;2.20;;
4232;SDS011;2130;48.472;11.934;2023-08-17T01:10:09;4.63;;;2.47;;
4232;SDS011;2130;48.472;11.934;2023-08-17T01:12:47;6.03;;;2.23;;
4232;SDS011;2130;48.472;11.934;2023-08-17T01:15:24;5.50;;;2.67;;
4232;SDS011;2130;48.472;11.934;2023-08-17T01:17:58;4.30;;;2.40;;
4232;SDS011;2130;48.472;11.934;2023-08-17T01:20:31;3.50;;;2.23;;
4232;SDS011;2130;48.472;11.934;2023-08-17T01:23:04;6.20;;;2.70;;
4232;SDS011;2130;48.472;11.934;2023-08-17T01:25:33;3.80;;;2.50;;
4232;SDS011;2130;48.472;11.934;2023-08-17T01:28:03;4.77;;;2.40;;
4232;SDS011;2130;48.472;11.934;2023-08-17T01:30:33;4.93;;;2.60;;
4232;SDS011;2130;48.472;11.934;2023-08-17T01:33:07;4.63;;;2.63;;
4232;SDS011;2130;48.472;11.934;2023-08-17T01:35:37;4.60;;;2.43;;
4232;SDS011;2130;48.472;11.934;2023-08-17T01:38:12;6.07;;;3.13;;
4232;SDS011;2130;48.472;11.934;2023-08-17T01:40:44;5.00;;;2.80;;
4232;SDS011;2130;48.472;11.934;2023-08-17T01:43:13;14.13;;;2.80;;
4232;SDS011;2130;48.472;11.934;2023-08-17T01:45:43;5.10;;;3.20;;
4232;SDS011;2130;48.472;11.934;2023-08-17T01:48:12;4.93;;;3.13;;
4232;SDS011;2130;48.472;11.934;2023-08-17T01:50:43;6.10;;;3.00;;
4232;SDS011;2130;48.472;11.934;2023-08-17T01:53:13;4.10;;;2.70;;
4232;SDS011;2130;48.472;11.934;2023-08-17T01:55:42;4.30;;;3.00;;
4232;SDS011;2130;48.472;11.934;2023-08-17T01:58:11;4.63;;;2.67;;
4232;SDS011;2130;48.472;11.934;2023-08-17T02:00:40;7.73;;;3.27;;
4232;SDS011;2130;48.472;11.934;2023-08-17T02:03:09;5.87;;;3.20;;
4232;SDS011;2130;48.472;11.934;2023-08-17T02:05:37;5.00;;;2.53;;
4232;SDS011;2130;48.472;11.934;2023-08-17T02:08:07;4.87;;;3.10;;
4232;SDS011;2130;48.472;11.934;2023-08-17T02:10:37;5.60;;;3.43;;
4232;SDS011;2130;48.472;11.934;2023-08-17T02:13:06;4.23;;;3.23;;
4232;SDS011;2130;48.472;11.934;2023-08-17T02:15:44;4.60;;;2.33;;
4232;SDS011;2130;48.472;11.934;2023-08-17T02:18:13;5.13;;;2.83;;
4232;SDS011;2130;48.472;11.934;2023-08-17T02:20:42;6.63;;;3.60;;
4232;SDS011;2130;48.472;11.934;2023-08-17T02:23:11;6.07;;;3.10;;
4232;SDS011;2130;48.472;11.934;2023-08-17T02:25:42;4.67;;;2.43;;
4232;SDS011;2130;48.472;11.934;2023-08-17T02:28:12;5.30;;;2.77;;
4232;SDS011;2130;48.472;11.934;2023-08-17T02:30:41;4.90;;;2.53;;
4232;SDS011;2130;48.472;11.934;2023-08-17T02:33:12;3.30;;;2.00;;
4232;SDS011;2130;48.472;11.934;2023-08-17T02:35:41;5.40;;;2.40;;
4232;SDS011;2130;48.472;11.934;2023-08-17T02:38:09;4.57;;;2.60;;
4232;SDS011;2130;48.472;11.934;2023-08-17T02:40:38;4.47;;;2.60;;
4232;SDS011;2130;48.472;11.934;2023-08-17T02:43:08;6.50;;;3.00;;
4232;SDS011;2130;48.472;11.934;2023-08-17T02:45:38;5.40;;;3.00;;
4232;SDS011;2130;48.472;11.934;2023-08-17T02:48:07;5.10;;;3.10;;
4232;SDS011;2130;48.472;11.934;2023-08-17T02:50:36;5.00;;;2.53;;
4232;SDS011;2130;48.472;11.934;2023-08-17T02:53:05;5.30;;;2.17;;
4232;SDS011;2130;48.472;11.934;2023-08-17T02:55:33;4.03;;;2.53;;
4232;SDS011;2130;48.472;11.934;2023-08-17T02:58:03;5.10;;;2.90;;
4232;SDS011;2130;48.472;11.934;2023-08-17T03:00:34;3.37;;;2.13;;
4232;SDS011;2130;48.472;11.934;2023-08-17T03:03:03;5.20;;;2.10;;
4232;SDS011;2130;48.472;11.934;2023-08-17T03:05:33;5.20;;;2.73;;
4232;SDS011;2130;48.472;11.934;2023-08-17T03:08:02;4.37;;;2.57;;
4232;SDS011;2130;48.472;11.934;2023-08-17T03:10:32;6.47;;;2.67;;
4232;SDS011;2130;48.472;11.934;2023-08-17T03:13:00;4.37;;;2.67;;
4232;SDS011;2130;48.472;11.934;2023-08-17T03:15:29;5.00;;;2.73;;
4232;SDS011;2130;48.472;11.934;2023-08-17T03:18:00;4.10;;;2.50;;
4232;SDS011;2130;48.472;11.934;2023-08-17T03:20:29;4.60;;;2.67;;
4232;SDS011;2130;48.472;11.934;2023-08-17T03:22:58;5.40;;;2.70;;
4232;SDS011;2130;48.472;11.934;2023-08-17T03:25:27;6.70;;;2.60;;
4232;SDS011;2130;48.472;11.934;2023-08-17T03:27:56;4.57;;;2.67;;
4232;SDS011;2130;48.472;11.934;2023-08-17T03:30:25;7.27;;;2.90;;
4232;SDS011;2130;48.472;11.934;2023-08-17T03:32:54;4.27;;;2.50;;
4232;SDS011;2130;48.472;11.934;2023-08-17T03:35:26;4.30;;;2.67;;
4232;SDS011;2130;48.472;11.934;2023-08-17T03:37:55;5.50;;;2.73;;
4232;SDS011;2130;48.472;11.934;2023-08-17T03:40:24;4.17;;;2.87;;
4232;SDS011;2130;48.472;11.934;2023-08-17T03:42:53;4.70;;;2.90;;
4232;SDS011;2130;48.472;11.934;2023-08-17T03:45:21;6.17;;;3.27;;
4232;SDS011;2130;48.472;11.934;2023-08-17T03:47:51;5.00;;;3.30;;
4232;SDS011;2130;48.472;11.934;2023-08-17T03:50:21;4.50;;;2.80;;
4232;SDS011;2130;48.472;11.934;2023-08-17T03:52:51;5.03;;;3.00;;
4232;SDS011;2130;48.472;11.934;2023-08-17T03:55:21;4.00;;;2.53;;
4232;SDS011;2130;48.472;11.934;2023-08-17T03:57:50;7.17;;;3.30;;
4232;SDS011;2130;48.472;11.934;2023-08-17T04:00:19;4.73;;;2.90;;
4232;SDS011;2130;48.472;11.934;2023-08-17T04:02:54;5.00;;;2.83;;
4232;SDS011;2130;48.472;11.934;2023-08-17T04:05:23;4.30;;;2.90;;
4232;SDS011;2130;48.472;11.934;2023-08-17T04:07:53;5.93;;;3.40;;
4232;SDS011;2130;48.472;11.934;2023-08-17T04:10:23;4.40;;;2.80;;
4232;SDS011;2130;48.472;11.934;2023-08-17T04:12:52;10.73;;;3.50;;
4232;SDS011;2130;48.472;11.934;2023-08-17T04:15:21;9.80;;;3.70;;
4232;SDS011;2130;48.472;11.934;2023-08-17T04:17:49;6.73;;;2.60;;
4232;SDS011;2130;48.472;11.934;2023-08-17T04:20:19;6.77;;;2.97;;
4232;SDS011;2130;48.472;11.934;2023-08-17T04:22:49;5.53;;;3.50;;
4232;SDS011;2130;48.472;11.934;2023-08-17T04:25:21;6.40;;;3.30;;
4232;SDS011;2130;48.472;11.934;2023-08-17T04:27:51;5.43;;;3.30;;
4232;SDS011;2130;48.472;11.934;2023-08-17T04:30:21;4.70;;;3.07;;
4232;SDS011;2130;48.472;11.934;2023-08-17T04:32:58;6.10;;;3.00;;
4232;SDS011;2130;48.472;11.934;2023-08-17T04:35:27;6.30;;;3.20;;
4232;SDS011;2130;48.472;11.934;2023-08-17T04:37:56;5.43;;;3.67;;
4232;SDS011;2130;48.472;11.934;2023-08-17T04:40:27;5.40;;;3.27;;
4232;SDS011;2130;48.472;11.934;2023-08-17T04:42:58;6.47;;;3.70;;
4232;SDS011;2130;48.472;11.934;2023-08-17T04:45:27;6.57;;;3.50;;
4232;SDS011;2130;48.472;11.934;2023-08-17T04:47:57;5.23;;;3.30;;
4232;SDS011;2130;48.472;11.934;2023-08-17T04:50:26;5.57;;;3.20;;
4232;SDS011;2130;48.472;11.934;2023-08-17T04:52:55;5.53;;;3.47;;
4232;SDS011;2130;48.472;11.934;2023-08-17T04:55:24;8.37;;;3.70;;
4232;SDS011;2130;48.472;11.934;2023-08-17T04:57:55;4.77;;;2.77;;
4232;SDS011;2130;48.472;11.934;2023-08-17T05:00:25;5.07;;;2.80;;
4232;SDS011;2130;48.472;11.934;2023-08-17T05:02:56;6.03;;;3.53;;
4232;SDS011;2130;48.472;11.934;2023-08-17T05:05:32;6.10;;;3.00;;
4232;SDS011;2130;48.472;11.934;2023-08-17T05:08:06;4.60;;;3.10;;
4232;SDS011;2130;48.472;11.934;2023-08-17T05:10:36;6.17;;;3.20;;
4232;SDS011;2130;48.472;11.934;2023-08-17T05:13:06;6.60;;;4.20;;
4232;SDS011;2130;48.472;11.934;2023-08-17T05:15:35;7.30;;;3.77;;
4232;SDS011;2130;48.472;11.934;2023-08-17T05:18:07;6.50;;;3.57;;
4232;SDS011;2130;48.472;11.934;2023-08-17T05:20:37;5.83;;;3.57;;
4232;SDS011;2130;48.472;11.934;2023-08-17T05:23:06;4.83;;;3.20;;
4232;SDS011;2130;48.472;11.934;2023-08-17T05:25:36;6.00;;;4.17;;
4232;SDS011;2130;48.472;11.934;2023-08-17T05:28:07;5.87;;;3.70;;
4232;SDS011;2130;48.472;11.934;2023-08-17T05:30:36;6.53;;;3.17;;
4232;SDS011;2130;48.472;11.934;2023-08-17T05:33:05;4.00;;;2.83;;
4232;SDS011;2130;48.472;11.934;2023-08-17T05:35:34;9.73;;;3.43;;
4232;SDS011;2130;48.472;11.934;2023-08-17T05:38:04;7.30;;;3.30;;
4232;SDS011;2130;48.472;11.934;2023-08-17T05:40:33;3.93;;;2.67;;
4232;SDS011;2130;48.472;11.934;2023-08-17T05:43:02;4.87;;;3.30;;
4232;SDS011;2130;48.472;11.934;2023-08-17T05:45:32;5.10;;;3.17;;
4232;SDS011;2130;48.472;11.934;2023-08-17T05:48:05;6.87;;;3.97;;
4232;SDS011;2130;48.472;11.934;2023-08-17T05:50:34;5.33;;;3.23;;
4232;SDS011;2130;48.472;11.934;2023-08-17T05:53:03;5.47;;;3.40;;
4232;SDS011;2130;48.472;11.934;2023-08-17T05:55:33;4.73;;;3.33;;
4232;SDS011;2130;48.472;11.934;2023-08-17T05:58:02;5.80;;;3.33;;
4232;SDS011;2130;48.472;11.934;2023-08-17T06:00:33;6.20;;;3.73;;
4232;SDS011;2130;48.472;11.934;2023-08-17T06:03:02;5.03;;;3.63;;
4232;SDS011;2130;48.472;11.934;2023-08-17T06:05:32;5.17;;;3.50;;
4232;SDS011;2130;48.472;11.934;2023-08-17T06:08:01;6.63;;;3.67;;
4232;SDS011;2130;48.472;11.934;2023-08-17T06:10:30;4.53;;;3.40;;
4232;SDS011;2130;48.472;11.934;2023-08-17T06:12:59;6.57;;;4.20;;
4232;SDS011;2130;48.472;11.934;2023-08-17T06:15:29;8.23;;;4.37;;
4232;SDS011;2130;48.472;11.934;2023-08-17T06:17:59;6.20;;;3.40;;
4232;SDS011;2130;48.472;11.934;2023-08-17T06:20:28;5.57;;;3.03;;
4232;SDS011;2130;48.472;11.934;2023-08-17T06:22:57;4.60;;;3.27;;
4232;SDS011;2130;48.472;11.934;2023-08-17T06:25:27;7.63;;;4.47;;
4232;SDS011;2130;48.472;11.934;2023-08-17T06:27:56;4.90;;;3.40;;
4232;SDS011;2130;48.472;11.934;2023-08-17T06:30:25;6.90;;;3.60;;
4232;SDS011;2130;48.472;11.934;2023-08-17T06:32:54;6.93;;;3.87;;
4232;SDS011;2130;48.472;11.934;2023-08-17T06:35:25;8.77;;;4.20;;
4232;SDS011;2130;48.472;11.934;2023-08-17T06:37:54;5.37;;;3.63;;
4232;SDS011;2130;48.472;11.934;2023-08-17T06:40:25;7.50;;;4.53;;
4232;SDS011;2130;48.472;11.934;2023-08-17T06:42:54;6.37;;;4.20;;
4232;SDS011;2130;48.472;11.934;2023-08-17T06:45:23;8.33;;;4.43;;
4232;SDS011;2130;48.472;11.934;2023-08-17T06:47:52;6.30;;;3.90;;
4232;SDS011;2130;48.472;11.934;2023-08-17T06:50:22;6.10;;;3.37;;
4232;SDS011;2130;48.472;11.934;2023-08-17T06:52:52;7.00;;;4.00;;
4232;SDS011;2130;48.472;11.934;2023-08-17T06:55:21;6.20;;;4.23;;
4232;SDS011;2130;48.472;11.934;2023-08-17T06:57:50;8.40;;;3.67;;
4232;SDS011;2130;48.472;11.934;2023-08-17T07:00:19;5.03;;;3.43;;
4232;SDS011;2130;48.472;11.934;2023-08-17T07:02:48;5.00;;;3.30;;
4232;SDS011;2130;48.472;11.934;2023-08-17T07:05:32;5.70;;;3.47;;
4232;SDS011;2130;48.472;11.934;2023-08-17T07:08:07;6.40;;;3.87;;
4232;SDS011;2130;48.472;11.934;2023-08-17T07:10:36;6.20;;;3.77;;
4232;SDS011;2130;48.472;11.934;2023-08-17T07:13:05;4.20;;;3.10;;
4232;SDS011;2130;48.472;11.934;2023-08-17T07:15:33;4.93;;;2.97;;
4232;SDS011;2130;48.472;11.934;2023-08-17T07:18:03;4.57;;;3.30;;
4232;SDS011;2130;48.472;11.934;2023-08-17T07:20:32;6.33;;;3.00;;
4232;SDS011;2130;48.472;11.934;2023-08-17T07:23:01;4.43;;;3.00;;
4232;SDS011;2130;48.472;11.934;2023-08-17T07:25:32;4.43;;;2.90;;
4232;SDS011;2130;48.472;11.934;2023-08-17T07:28:01;8.23;;;3.40;;
4232;SDS011;2130;48.472;11.934;2023-08-17T07:30:29;5.80;;;3.40;;
4232;SDS011;2130;48.472;11.934;2023-08-17T07:32:58;5.30;;;3.33;;
4232;SDS011;2130;48.472;11.934;2023-08-17T07:35:27;5.73;;;3.20;;
4232;SDS011;2130;48.472;11.934;2023-08-17T07:37:56;4.73;;;2.67;;
4232;SDS011;2130;48.472;11.934;2023-08-17T07:40:36;4.93;;;3.00;;
4232;SDS011;2130;48.472;11.934;2023-08-17T07:43:06;5.47;;;3.17;;
4232;SDS011;2130;48.472;11.934;2023-08-17T07:45:35;4.10;;;2.70;;
4232;SDS011;2130;48.472;11.934;2023-08-17T07:48:04;5.70;;;3.23;;
4232;SDS011;2130;48.472;11.934;2023-08-17T07:50:33;4.67;;;3.00;;
4232;SDS011;2130;48.472;11.934;2023-08-17T07:53:02;4.10;;;2.83;;
4232;SDS011;2130;48.472;11.934;2023-08-17T07:55:31;4.33;;;2.70;;
4232;SDS011;2130;48.472;11.934;2023-08-17T07:58:06;6.80;;;2.93;;
4232;SDS011;2130;48.472;11.934;2023-08-17T08:00:36;4.00;;;3.10;;
4232;SDS011;2130;48.472;11.934;2023-08-17T08:03:05;6.90;;;3.17;;
4232;SDS011;2130;48.472;11.934;2023-08-17T08:05:34;5.07;;;2.93;;
4232;SDS011;2130;48.472;11.934;2023-08-17T08:08:03;4.37;;;2.80;;
4232;SDS011;2130;48.472;11.934;2023-08-17T08:10:32;9.80;;;3.00;;
4232;SDS011;2130;48.472;11.934;2023-08-17T08:13:03;5.43;;;2.93;;
4232;SDS011;2130;48.472;11.934;2023-08-17T08:15:34;4.40;;;2.37;;
4232;SDS011;2130;48.472;11.934;2023-08-17T08:18:04;6.47;;;3.70;;
4232;SDS011;2130;48.472;11.934;2023-08-17T08:20:33;3.60;;;2.70;;
4232;SDS011;2130;48.472;11.934;2023-08-17T08:23:02;3.77;;;2.53;;
4232;SDS011;2130;48.472;11.934;2023-08-17T08:25:32;3.10;;;2.30;;
4232;SDS011;2130;48.472;11.934;2023-08-17T08:28:00;3.73;;;2.53;;
4232;SDS011;2130;48.472;11.934;2023-08-17T08:30:29;4.03;;;2.97;;
4232;SDS011;2130;48.472;11.934;2023-08-17T08:33:01;3.87;;;2.60;;
4232;SDS011;2130;48.472;11.934;2023-08-17T08:35:29;4.67;;;2.80;;
4232;SDS011;2130;48.472;11.934;2023-08-17T08:37:58;4.07;;;2.60;;
4232;SDS011;2130;48.472;11.934;2023-08-17T08:40:28;4.30;;;2.90;;
4232;SDS011;2130;48.472;11.934;2023-08-17T08:42:58;5.67;;;3.20;;
4232;SDS011;2130;48.472;11.934;2023-08-17T08:45:27;3.93;;;2.90;;
4232;SDS011;2130;48.472;11.934;2023-08-17T08:47:57;4.43;;;2.50;;
4232;SDS011;2130;48.472;11.934;2023-08-17T08:50:27;4.30;;;2.50;;
4232;SDS011;2130;48.472;11.934;2023-08-17T08:53:00;4.90;;;2.47;;
4232;SDS011;2130;48.472;11.934;2023-08-17T08:55:32;5.53;;;3.23;;
4232;SDS011;2130;48.472;11.934;2023-08-17T08:58:05;4.70;;;2.77;;
4232;SDS011;2130;48.472;11.934;2023-08-17T09:00:35;3.73;;;2.67;;
4232;SDS011;2130;48.472;11.934;2023-08-17T09:03:07;4.47;;;2.90;;
4232;SDS011;2130;48.472;11.934;2023-08-17T09:05:39;5.70;;;3.10;;
4232;SDS011;2130;48.472;11.934;2023-08-17T09:08:08;5.10;;;3.10;;
4232;SDS011;2130;48.472;11.934;2023-08-17T09:10:43;5.17;;;3.07;;
4232;SDS011;2130;48.472;11.934;2023-08-17T09:13:12;4.47;;;2.77;;
4232;SDS011;2130;48.472;11.934;2023-08-17T09:15:41;4.20;;;3.00;;
4232;SDS011;2130;48.472;11.934;2023-08-17T09:18:10;6.50;;;3.50;;
4232;SDS011;2130;48.472;11.934;2023-08-17T09:20:42;6.20;;;3.60;;
4232;SDS011;2130;48.472;11.934;2023-08-17T09:23:17;4.70;;;2.93;;
4232;SDS011;2130;48.472;11.934;2023-08-17T09:25:48;6.73;;;3.30;;
4232;SDS011;2130;48.472;11.934;2023-08-17T09:28:19;4.80;;;2.40;;
4232;SDS011;2130;48.472;11.934;2023-08-17T09:30:51;4.33;;;2.93;;
4232;SDS011;2130;48.472;11.934;2023-08-17T09:33:21;5.20;;;2.93;;
4232;SDS011;2130;48.472;11.934;2023-08-17T09:35:53;4.63;;;2.87;;
4232;SDS011;2130;48.472;11.934;2023-08-17T09:38:25;5.70;;;3.20;;
4232;SDS011;2130;48.472;11.934;2023-08-17T09:40:56;5.37;;;3.20;;
4232;SDS011;2130;48.472;11.934;2023-08-17T09:43:26;4.67;;;2.90;;
4232;SDS011;2130;48.472;11.934;2023-08-17T09:45:58;5.10;;;3.37;;
4232;SDS011;2130;48.472;11.934;2023-08-17T09:48:29;5.70;;;2.60;;
4232;SDS011;2130;48.472;11.934;2023-08-17T09:51:01;4.63;;;3.03;;
4232;SDS011;2130;48.472;11.934;2023-08-17T09:53:34;5.30;;;3.13;;
4232;SDS011;2130;48.472;11.934;2023-08-17T09:56:04;7.40;;;3.57;;
4232;SDS011;2130;48.472;11.934;2023-08-17T09:58:43;7.10;;;3.57;;
4232;SDS011;2130;48.472;11.934;2023-08-17T10:01:12;4.77;;;2.93;;
4232;SDS011;2130;48.472;11.934;2023-08-17T10:03:42;4.53;;;3.10;;
4232;SDS011;2130;48.472;11.934;2023-08-17T10:06:14;6.30;;;3.43;;
4232;SDS011;2130;48.472;11.934;2023-08-17T10:08:51;4.77;;;2.83;;
4232;SDS011;2130;48.472;11.934;2023-08-17T10:11:21;3.63;;;2.37;;
4232;SDS011;2130;48.472;11.934;2023-08-17T10:13:52;4.67;;;3.00;;
4232;SDS011;2130;48.472;11.934;2023-08-17T10:16:26;3.50;;;2.53;;
4232;SDS011;2130;48.472;11.934;2023-08-17T10:18:59;4.70;;;2.70;;
4232;SDS011;2130;48.472;11.934;2023-08-17T10:21:37;5.27;;;2.60;;
4232;SDS011;2130;48.472;11.934;2023-08-17T10:24:08;8.00;;;3.10;;
4232;SDS011;2130;48.472;11.934;2023-08-17T10:26:37;6.03;;;2.57;;
4232;SDS011;2130;48.472;11.934;2023-08-17T10:29:07;4.90;;;3.00;;
4232;SDS011;2130;48.472;11.934;2023-08-17T10:31:43;5.17;;;3.07;;
4232;SDS011;2130;48.472;11.934;2023-08-17T10:34:13;6.27;;;2.90;;
4232;SDS011;2130;48.472;11.934;2023-08-17T10:36:45;5.10;;;2.43;;
4232;SDS011;2130;48.472;11.934;2023-08-17T10:39:17;4.10;;;2.67;;
4232;SDS011;2130;48.472;11.934;2023-08-17T10:41:47;5.00;;;2.80;;
4232;SDS011;2130;48.472;11.934;2023-08-17T10:44:17;5.50;;;3.17;;
4232;SDS011;2130;48.472;11.934;2023-08-17T10:46:52;5.77;;;3.17;;
4232;SDS011;2130;48.472;11.934;2023-08-17T10:49:24;5.17;;;2.50;;
4232;SDS011;2130;48.472;11.934;2023-08-17T10:52:01;4.73;;;2.80;;
4232;SDS011;2130;48.472;11.934;2023-08-17T10:54:38;3.87;;;2.30;;
4232;SDS011;2130;48.472;11.934;2023-08-17T11:00:08;5.07;;;2.73;;
4232;SDS011;2130;48.472;11.934;2023-08-17T11:02:52;5.50;;;3.10;;
4232;SDS011;2130;48.472;11.934;2023-08-17T11:05:34;5.40;;;3.03;;
4232;SDS011;2130;48.472;11.934;2023-08-17T11:08:07;4.67;;;2.90;;
4232;SDS011;2130;48.472;11.934;2023-08-17T11:10:37;6.37;;;2.40;;
4232;SDS011;2130;48.472;11.934;2023-08-17T11:13:06;5.83;;;2.80;;
4232;SDS011;2130;48.472;11.934;2023-08-17T11:15:37;5.23;;;3.03;;
4232;SDS011;2130;48.472;11.934;2023-08-17T11:18:09;4.80;;;2.73;;
4232;SDS011;2130;48.472;11.934;2023-08-17T11:20:40;5.67;;;3.07;;
4232;SDS011;2130;48.472;11.934;2023-08-17T11:23:11;9.73;;;3.57;;
4232;SDS011;2130;48.472;11.934;2023-08-17T11:25:41;5.27;;;2.80;;
4232;SDS011;2130;48.472;11.934;2023-08-17T11:28:11;5.37;;;2.83;;
4232;SDS011;2130;48.472;11.934;2023-08-17T11:30:44;4.40;;;2.70;;
4232;SDS011;2130;48.472;11.934;2023-08-17T11:33:13;5.57;;;3.03;;
4232;SDS011;2130;48.472;11.934;2023-08-17T11:35:43;4.93;;;2.40;;
4232;SDS011;2130;48.472;11.934;2023-08-17T11:38:14;6.40;;;3.30;;
4232;SDS011;2130;48.472;11.934;2023-08-17T11:40:44;5.10;;;2.40;;
4232;SDS011;2130;48.472;11.934;2023-08-17T11:43:13;4.67;;;2.57;;
4232;SDS011;2130;48.472;11.934;2023-08-17T11:45:49;4.03;;;2.43;;
4232;SDS011;2130;48.472;11.934;2023-08-17T11:48:20;4.13;;;2.30;;
4232;SDS011;2130;48.472;11.934;2023-08-17T11:50:50;4.87;;;2.73;;
4232;SDS011;2130;48.472;11.934;2023-08-17T11:53:24;5.97;;;3.30;;
4232;SDS011;2130;48.472;11.934;2023-08-17T11:55:53;5.23;;;3.10;;
4232;SDS011;2130;48.472;11.934;2023-08-17T11:58:36;7.33;;;3.70;;
4232;SDS011;2130;48.472;11.934;2023-08-17T12:01:08;6.40;;;3.40;;
4232;SDS011;2130;48.472;11.934;2023-08-17T12:03:38;6.40;;;3.20;;
4232;SDS011;2130;48.472;11.934;2023-08-17T12:06:09;4.57;;;2.90;;
4232;SDS011;2130;48.472;11.934;2023-08-17T12:08:43;5.73;;;3.00;;
4232;SDS011;2130;48.472;11.934;2023-08-17T12:11:15;6.17;;;3.30;;
4232;SDS011;2130;48.472;11.934;2023-08-17T12:13:46;4.30;;;2.70;;
4232;SDS011;2130;48.472;11.934;2023-08-17T12:16:18;4.20;;;2.50;;
4232;SDS011;2130;48.472;11.934;2023-08-17T12:18:48;5.17;;;2.50;;
4232;SDS011;2130;48.472;11.934;2023-08-17T12:21:19;5.63;;;3.07;;
4232;SDS011;2130;48.472;11.934;2023-08-17T12:23:50;4.80;;;2.80;;
4232;SDS011;2130;48.472;11.934;2023-08-17T12:26:20;4.07;;;2.60;;
4232;SDS011;2130;48.472;11.934;2023-08-17T12:28:50;7.30;;;2.90;;
4232;SDS011;2130;48.472;11.934;2023-08-17T12:31:22;4.23;;;2.43;;
4232;SDS011;2130;48.472;11.934;2023-08-17T12:33:52;4.60;;;2.47;;
4232;SDS011;2130;48.472;11.934;2023-08-17T12:36:26;5.67;;;2.90;;
4232;SDS011;2130;48.472;11.934;2023-08-17T12:38:58;5.43;;;2.83;;
4232;SDS011;2130;48.472;11.934;2023-08-17T12:41:30;5.10;;;2.60;;
4232;SDS011;2130;48.472;11.934;2023-08-17T12:43:59;5.23;;;3.30;;
4232;SDS011;2130;48.472;11.934;2023-08-17T12:46:29;5.00;;;2.80;;
4232;SDS011;2130;48.472;11.934;2023-08-17T12:49:00;5.30;;;2.90;;
4232;SDS011;2130;48.472;11.934;2023-08-17T12:51:30;8.10;;;2.50;;
4232;SDS011;2130;48.472;11.934;2023-08-17T12:54:05;4.70;;;2.97;;
4232;SDS011;2130;48.472;11.934;2023-08-17T12:56:33;4.40;;;2.60;;
4232;SDS011;2130;48.472;11.934;2023-08-17T12:59:02;5.47;;;2.67;;
4232;SDS011;2130;48.472;11.934;2023-08-17T13:01:31;5.40;;;3.10;;
4232;SDS011;2130;48.472;11.934;2023-08-17T13:04:02;4.80;;;2.67;;
4232;SDS011;2130;48.472;11.934;2023-08-17T13:06:32;5.53;;;2.87;;
4232;SDS011;2130;48.472;11.934;2023-08-17T13:09:16;5.40;;;3.10;;
4232;SDS011;2130;48.472;11.934;2023-08-17T13:11:50;7.10;;;3.27;;
4232;SDS011;2130;48.472;11.934;2023-08-17T13:14:19;4.97;;;2.90;;
4232;SDS011;2130;48.472;11.934;2023-08-17T13:16:52;4.50;;;2.43;;
4232;SDS011;2130;48.472;11.934;2023-08-17T13:19:21;4.67;;;2.60;;
4232;SDS011;2130;48.472;11.934;2023-08-17T13:21:50;5.30;;;3.00;;
4232;SDS011;2130;48.472;11.934;2023-08-17T13:24:20;6.17;;;2.93;;
4232;SDS011;2130;48.472;11.934;2023-08-17T13:26:50;5.00;;;2.60;;
4232;SDS011;2130;48.472;11.934;2023-08-17T13:29:22;6.20;;;2.70;;
4232;SDS011;2130;48.472;11.934;2023-08-17T13:31:50;5.20;;;2.60;;
4232;SDS011;2130;48.472;11.934;2023-08-17T13:34:20;5.80;;;2.63;;
4232;SDS011;2130;48.472;11.934;2023-08-17T13:36:49;4.80;;;2.70;;
4232;SDS011;2130;48.472;11.934;2023-08-17T13:39:21;4.50;;;2.70;;
4232;SDS011;2130;48.472;11.934;2023-08-17T13:41:50;4.20;;;2.63;;
4232;SDS011;2130;48.472;11.934;2023-08-17T13:44:21;4.77;;;2.70;;
4232;SDS011;2130;48.472;11.934;2023-08-17T13:46:54;4.63;;;2.80;;
4232;SDS011;2130;48.472;11.934;2023-08-17T13:49:23;5.30;;;2.73;;
4232;SDS011;2130;48.472;11.934;2023-08-17T13:51:52;5.50;;;2.83;;
4232;SDS011;2130;48.472;11.934;2023-08-17T13:54:24;5.50;;;2.90;;
4232;SDS011;2130;48.472;11.934;2023-08-17T13:56:54;4.97;;;2.40;;
4232;SDS011;2130;48.472;11.934;2023-08-17T13:59:26;5.73;;;3.03;;
4232;SDS011;2130;48.472;11.934;2023-08-17T14:01:56;6.37;;;3.00;;
4232;SDS011;2130;48.472;11.934;2023-08-17T14:04:28;5.50;;;2.70;;
4232;SDS011;2130;48.472;11.934;2023-08-17T14:06:57;5.83;;;2.70;;
4232;SDS011;2130;48.472;11.934;2023-08-17T14:09:29;4.10;;;2.50;;
4232;SDS011;2130;48.472;11.934;2023-08-17T14:11:58;4.70;;;2.63;;
4232;SDS011;2130;48.472;11.934;2023-08-17T14:14:30;4.33;;;2.40;;
4232;SDS011;2130;48.472;11.934;2023-08-17T14:16:58;9.57;;;2.80;;
4232;SDS011;2130;48.472;11.934;2023-08-17T14:19:27;6.10;;;2.47;;
4232;SDS011;2130;48.472;11.934;2023-08-17T14:21:58;5.10;;;2.30;;
4232;SDS011;2130;48.472;11.934;2023-08-17T14:24:30;5.00;;;2.53;;
4232;SDS011;2130;48.472;11.934;2023-08-17T14:27:00;4.37;;;2.30;;
4232;SDS011;2130;48.472;11.934;2023-08-17T14:29:32;5.40;;;2.50;;
4232;SDS011;2130;48.472;11.934;2023-08-17T14:32:01;5.63;;;2.90;;
4232;SDS011;2130;48.472;11.934;2023-08-17T14:34:31;4.40;;;2.37;;
4232;SDS011;2130;48.472;11.934;2023-08-17T14:37:02;5.20;;;2.33;;
4232;SDS011;2130;48.472;11.934;2023-08-17T14:39:33;4.80;;;2.27;;
4232;SDS011;2130;48.472;11.934;2023-08-17T14:42:05;5.03;;;2.70;;
4232;SDS011;2130;48.472;11.934;2023-08-17T14:44:34;5.10;;;2.67;;
4232;SDS011;2130;48.472;11.934;2023-08-17T14:47:07;5.25;;;2.30;;
4232;SDS011;2130;48.472;11.934;2023-08-17T14:49:38;4.80;;;2.75;;
4232;SDS011;2130;48.472;11.934;2023-08-17T14:52:09;4.32;;;2.20;;
4232;SDS011;2130;48.472;11.934;2023-08-17T14:54:41;4.60;;;2.20;;
4232;SDS011;2130;48.472;11.934;2023-08-17T14:57:10;5.57;;;2.33;;
4232;SDS011;2130;48.472;11.934;2023-08-17T14:59:39;5.10;;;2.78;;
4232;SDS011;2130;48.472;11.934;2023-08-17T15:02:09;5.07;;;2.50;;
4232;SDS011;2130;48.472;11.934;2023-08-17T15:04:38;6.00;;;2.67;;
4232;SDS011;2130;48.472;11.934;2023-08-17T15:07:07;5.00;;;2.40;;
4232;SDS011;2130;48.472;11.934;2023-08-17T15:09:38;4.75;;;2.70;;
4232;SDS011;2130;48.472;11.934;2023-08-17T15:12:11;4.43;;;2.17;;
4232;SDS011;2130;48.472;11.934;2023-08-17T15:14:39;5.70;;;2.58;;
4232;SDS011;2130;48.472;11.934;2023-08-17T15:17:08;5.72;;;2.88;;
4232;SDS011;2130;48.472;11.934;2023-08-17T15:19:39;5.03;;;2.35;;
4232;SDS011;2130;48.472;11.934;2023-08-17T15:22:11;5.05;;;2.15;;